createdAt,value
2019-05-22T00:00:50.967Z,16.99
2019-05-22T00:03:28.360Z,16.98
2019-05-22T00:06:03.207Z,16.99
2019-05-22T00:08:37.533Z,16.98
2019-05-22T00:11:12.365Z,17.00
2019-05-22T00:13:48.278Z,16.90
2019-05-22T00:16:24.612Z,16.91
2019-05-22T00:18:58.164Z,16.95
2019-05-22T00:21:31.380Z,16.91
2019-05-22T00:24:08.314Z,16.92
2019-05-22T00:26:44.088Z,16.94
2019-05-22T00:29:17.421Z,16.93
2019-05-22T00:31:50.631Z,16.92
2019-05-22T00:34:24.344Z,16.93
2019-05-22T00:36:57.828Z,16.94
2019-05-22T00:39:31.896Z,16.92
2019-05-22T00:42:08.537Z,16.85
2019-05-22T00:44:44.068Z,16.82
2019-05-22T00:47:18.102Z,16.87
2019-05-22T00:49:55.676Z,16.86
2019-05-22T00:52:43.068Z,16.86
2019-05-22T00:55:34.177Z,16.84
2019-05-22T00:58:15.072Z,16.84
2019-05-22T01:01:13.282Z,16.78
2019-05-22T01:03:49.533Z,16.80
2019-05-22T01:06:25.599Z,16.74
2019-05-22T01:09:00.496Z,16.75
2019-05-22T01:11:34.359Z,16.71
2019-05-22T01:14:09.706Z,16.71
2019-05-22T01:16:46.428Z,16.65
2019-05-22T01:19:20.724Z,16.63
2019-05-22T01:21:56.128Z,16.63
2019-05-22T01:24:30.709Z,16.68
2019-05-22T01:27:04.889Z,16.66
2019-05-22T01:29:42.284Z,16.65
2019-05-22T01:32:24.822Z,16.67
2019-05-22T01:34:58.091Z,16.66
2019-05-22T01:37:31.759Z,16.66
2019-05-22T01:40:12.870Z,16.69
2019-05-22T01:42:48.568Z,16.74
2019-05-22T01:45:24.680Z,16.75
2019-05-22T01:48:08.738Z,16.74
2019-05-22T01:50:51.523Z,16.68
2019-05-22T01:53:29.866Z,16.74
2019-05-22T01:56:07.819Z,16.79
2019-05-22T01:58:42.770Z,16.75
2019-05-22T02:01:21.075Z,16.77
2019-05-22T02:03:56.977Z,16.81
2019-05-22T02:06:30.618Z,16.75
2019-05-22T02:09:31.115Z,16.75
2019-05-22T02:12:30.818Z,16.81
2019-05-22T02:15:05.127Z,16.84
2019-05-22T02:17:39.706Z,16.86
2019-05-22T02:20:14.245Z,16.88
2019-05-22T02:22:50.184Z,16.86
2019-05-22T02:25:24.303Z,16.93
2019-05-22T02:27:58.801Z,16.95
2019-05-22T02:30:34.099Z,16.99
2019-05-22T02:33:10.715Z,16.97
2019-05-22T02:35:45.526Z,16.99
2019-05-22T02:38:19.615Z,16.96
2019-05-22T02:40:55.320Z,16.94
2019-05-22T02:43:29.189Z,16.88
2019-05-22T02:46:02.725Z,16.88
2019-05-22T02:48:37.248Z,16.81
2019-05-22T02:51:10.464Z,16.82
2019-05-22T02:53:44.831Z,16.79
2019-05-22T02:56:18.310Z,16.72
2019-05-22T02:58:51.809Z,16.79
2019-05-22T03:01:26.911Z,16.76
2019-05-22T03:04:00.218Z,16.67
2019-05-22T03:06:36.021Z,16.70
2019-05-22T03:09:28.821Z,16.71
2019-05-22T03:12:16.470Z,16.71
2019-05-22T03:14:50.111Z,16.72
2019-05-22T03:17:31.056Z,16.73
2019-05-22T03:20:11.943Z,16.66
2019-05-22T03:23:38.154Z,16.70
2019-05-22T03:26:13.751Z,16.65
2019-05-22T03:28:48.203Z,16.59
2019-05-22T03:31:21.910Z,16.57
2019-05-22T03:33:55.902Z,16.48
2019-05-22T03:36:31.580Z,16.44
2019-05-22T03:39:08.235Z,16.38
2019-05-22T03:41:43.114Z,16.43
2019-05-22T03:44:17.645Z,16.49
2019-05-22T03:46:51.550Z,16.41
2019-05-22T03:49:30.528Z,16.46
2019-05-22T03:52:01.301Z,16.30
2019-05-22T03:54:35.677Z,16.29
2019-05-22T03:57:10.721Z,16.30
2019-05-22T03:59:43.949Z,16.21
2019-05-22T04:02:18.862Z,16.24
2019-05-22T04:04:52.345Z,16.28
2019-05-22T04:07:26.764Z,16.36
2019-05-22T04:10:01.682Z,16.32
2019-05-22T04:12:35.002Z,16.41
2019-05-22T04:15:12.460Z,16.44
2019-05-22T04:17:46.019Z,16.47
2019-05-22T04:20:21.865Z,16.46
2019-05-22T04:22:59.872Z,16.40
2019-05-22T04:25:33.914Z,16.40
2019-05-22T04:28:07.822Z,16.34
2019-05-22T04:30:41.431Z,16.42
2019-05-22T04:33:15.833Z,16.43
2019-05-22T04:35:50.370Z,16.43
2019-05-22T04:38:24.575Z,16.41
2019-05-22T04:41:00.081Z,16.42
2019-05-22T04:43:40.630Z,16.40
2019-05-22T04:46:21.636Z,16.45
2019-05-22T04:48:59.130Z,16.50
2019-05-22T04:51:32.865Z,16.46
2019-05-22T04:54:06.525Z,16.42
2019-05-22T04:56:40.350Z,16.42
2019-05-22T04:59:15.115Z,16.34
2019-05-22T05:01:49.146Z,16.43
2019-05-22T05:04:23.222Z,16.45
2019-05-22T05:06:57.947Z,16.45
2019-05-22T05:09:31.834Z,16.49
2019-05-22T05:12:05.847Z,16.47
2019-05-22T05:14:39.836Z,16.49
2019-05-22T05:17:14.308Z,16.41
2019-05-22T05:19:47.638Z,16.46
2019-05-22T05:22:33.980Z,16.38
2019-05-22T05:25:07.274Z,16.38
2019-05-22T05:27:40.588Z,16.49
2019-05-22T05:30:15.468Z,16.52
2019-05-22T05:32:48.904Z,16.57
2019-05-22T05:35:24.008Z,16.61
2019-05-22T05:37:57.420Z,16.53
2019-05-22T05:40:40.612Z,16.60
2019-05-22T05:43:17.482Z,16.55
2019-05-22T05:45:52.525Z,16.53
2019-05-22T05:48:28.606Z,16.60
2019-05-22T05:51:26.006Z,16.61
2019-05-22T05:54:06.032Z,16.61
2019-05-22T05:56:43.252Z,16.59
2019-05-22T05:59:18.050Z,16.60
2019-05-22T06:01:58.179Z,16.65
2019-05-22T06:04:38.513Z,16.74
2019-05-22T06:07:25.477Z,16.79
2019-05-22T06:11:11.437Z,16.74
2019-05-22T06:13:44.856Z,16.68
2019-05-22T06:17:27.296Z,16.71
2019-05-22T06:20:06.175Z,16.71
2019-05-22T06:22:42.729Z,16.61
2019-05-22T06:25:16.725Z,16.61
2019-05-22T06:27:55.213Z,16.61
2019-05-22T06:30:46.525Z,16.60
2019-05-22T06:33:37.815Z,16.63
2019-05-22T06:36:17.313Z,16.65
2019-05-22T06:39:14.157Z,16.66
2019-05-22T06:41:49.909Z,16.68
2019-05-22T06:44:44.548Z,16.69
2019-05-22T06:47:26.015Z,16.61
2019-05-22T06:49:59.878Z,16.58
2019-05-22T06:52:33.218Z,16.65
2019-05-22T06:55:07.637Z,16.60
2019-05-22T06:57:41.165Z,16.62
2019-05-22T07:00:21.879Z,16.69
2019-05-22T07:02:56.401Z,16.67
2019-05-22T07:05:30.529Z,16.56
2019-05-22T07:08:06.067Z,16.55
2019-05-22T07:10:41.688Z,16.62
2019-05-22T07:13:17.131Z,16.65
2019-05-22T07:15:54.160Z,16.67
2019-05-22T07:18:31.010Z,16.70
2019-05-22T07:21:05.198Z,16.76
2019-05-22T07:23:38.558Z,16.67
2019-05-22T07:26:12.168Z,16.65
2019-05-22T07:28:46.231Z,16.66
2019-05-22T07:31:20.440Z,16.64
2019-05-22T07:33:55.928Z,16.64
2019-05-22T07:36:31.893Z,16.72
2019-05-22T07:39:07.279Z,16.70
2019-05-22T07:41:41.301Z,16.75
2019-05-22T07:44:14.817Z,16.71
2019-05-22T07:46:48.144Z,16.76
2019-05-22T07:49:22.786Z,16.89
2019-05-22T07:52:01.555Z,17.03
2019-05-22T07:54:31.954Z,16.91
2019-05-22T07:57:06.796Z,17.05
2019-05-22T07:59:40.240Z,17.15
2019-05-22T08:02:14.671Z,17.25
2019-05-22T08:04:48.109Z,17.36
2019-05-22T08:07:24.560Z,17.41
2019-05-22T08:09:57.752Z,17.41
2019-05-22T08:12:32.229Z,17.52
2019-05-22T08:15:07.664Z,17.56
2019-05-22T08:17:41.943Z,17.53
2019-05-22T08:20:15.882Z,17.48
2019-05-22T08:22:51.545Z,17.34
2019-05-22T08:25:24.931Z,17.30
2019-05-22T08:28:00.225Z,17.29
2019-05-22T08:30:33.559Z,17.29
2019-05-22T08:33:11.713Z,17.27
2019-05-22T08:35:45.934Z,17.26
2019-05-22T08:38:20.179Z,17.22
2019-05-22T08:40:54.619Z,17.06
2019-05-22T08:43:28.922Z,17.05
2019-05-22T08:46:03.072Z,17.01
2019-05-22T08:48:46.203Z,17.03
2019-05-22T08:51:14.664Z,17.07
2019-05-22T08:53:48.815Z,17.05
2019-05-22T08:56:22.728Z,16.96
2019-05-22T08:58:56.563Z,17.02
2019-05-22T09:01:31.826Z,17.04
2019-05-22T09:04:05.517Z,17.15
2019-05-22T09:06:38.930Z,17.14
2019-05-22T09:09:12.198Z,17.04
2019-05-22T09:11:45.410Z,17.08
2019-05-22T09:14:18.792Z,17.03
2019-05-22T09:16:53.458Z,16.99
2019-05-22T09:19:27.676Z,17.02
2019-05-22T09:22:01.312Z,16.94
2019-05-22T09:24:34.766Z,16.94
2019-05-22T09:27:08.152Z,16.81
2019-05-22T09:29:41.604Z,16.86
2019-05-22T09:32:14.811Z,16.82
2019-05-22T09:34:48.469Z,16.74
2019-05-22T09:37:21.680Z,16.74
2019-05-22T09:39:55.047Z,16.82
2019-05-22T09:42:29.060Z,16.83
2019-05-22T09:45:02.349Z,16.82
2019-05-22T09:47:35.679Z,16.93
2019-05-22T09:50:10.548Z,16.92
2019-05-22T09:52:57.078Z,17.02
2019-05-22T09:55:22.429Z,16.98
2019-05-22T09:57:56.041Z,17.03
2019-05-22T10:00:30.768Z,17.07
2019-05-22T10:03:04.148Z,17.10
2019-05-22T10:05:37.910Z,17.07
2019-05-22T10:08:11.286Z,17.28
2019-05-22T10:10:44.828Z,17.48
2019-05-22T10:13:18.063Z,17.56
2019-05-22T10:15:51.251Z,17.50
2019-05-22T10:18:25.251Z,17.55
2019-05-22T10:20:58.998Z,17.61
2019-05-22T10:23:33.378Z,17.64
2019-05-22T10:26:06.893Z,17.76
2019-05-22T10:28:42.384Z,17.89
2019-05-22T10:31:17.754Z,17.92
2019-05-22T10:33:52.011Z,17.99
2019-05-22T10:36:25.609Z,18.05
2019-05-22T10:38:59.366Z,18.09
2019-05-22T10:41:33.528Z,18.16
2019-05-22T10:44:07.754Z,18.31
2019-05-22T10:46:41.010Z,18.27
2019-05-22T10:49:14.244Z,18.20
2019-05-22T10:51:48.033Z,18.18
2019-05-22T10:54:21.337Z,18.16
2019-05-22T10:56:54.575Z,18.37
2019-05-22T10:59:27.798Z,18.66
2019-05-22T11:02:01.155Z,18.84
2019-05-22T11:04:34.733Z,19.00
2019-05-22T11:07:08.082Z,18.98
2019-05-22T11:09:42.296Z,18.97
2019-05-22T11:12:16.669Z,18.86
2019-05-22T11:14:50.348Z,18.97
2019-05-22T11:17:23.747Z,19.19
2019-05-22T11:19:57.153Z,19.32
2019-05-22T11:22:34.838Z,19.31
2019-05-22T11:25:09.062Z,19.31
2019-05-22T11:27:42.405Z,19.39
2019-05-22T11:30:17.623Z,19.49
2019-05-22T11:32:50.810Z,19.56
2019-05-22T11:35:24.900Z,19.71
2019-05-22T11:37:59.224Z,19.70
2019-05-22T11:40:34.131Z,19.77
2019-05-22T11:43:07.922Z,19.49
2019-05-22T11:45:44.985Z,19.62
2019-05-22T11:48:16.184Z,19.71
2019-05-22T11:50:49.989Z,19.90
2019-05-22T11:53:23.397Z,20.08
2019-05-22T11:55:56.623Z,20.02
2019-05-22T11:58:30.179Z,20.07
2019-05-22T12:01:04.478Z,20.11
2019-05-22T12:03:37.825Z,20.24
2019-05-22T12:06:12.181Z,20.25
2019-05-22T12:08:48.910Z,20.40
2019-05-22T12:11:22.694Z,20.34
2019-05-22T12:13:57.332Z,20.31
2019-05-22T12:16:31.100Z,20.34
2019-05-22T12:19:04.535Z,20.27
2019-05-22T12:21:51.908Z,20.06
2019-05-22T12:24:30.182Z,20.03
2019-05-22T12:27:00.908Z,19.96
2019-05-22T12:29:34.589Z,20.12
2019-05-22T12:32:09.015Z,20.32
2019-05-22T12:34:42.269Z,20.37
2019-05-22T12:37:15.605Z,20.37
2019-05-22T12:39:48.958Z,20.34
2019-05-22T12:42:22.342Z,20.48
2019-05-22T12:44:55.874Z,20.48
2019-05-22T12:47:29.472Z,20.32
2019-05-22T12:50:03.566Z,20.33
2019-05-22T12:52:36.896Z,20.18
2019-05-22T12:55:10.924Z,19.95
2019-05-22T12:57:44.146Z,19.95
2019-05-22T13:00:21.154Z,19.99
2019-05-22T13:02:55.989Z,20.01
2019-05-22T13:05:31.110Z,19.87
2019-05-22T13:08:05.266Z,19.94
2019-05-22T13:10:39.610Z,19.95
2019-05-22T13:13:13.017Z,19.96
2019-05-22T13:15:46.351Z,20.12
2019-05-22T13:18:22.173Z,20.16
2019-05-22T13:20:55.947Z,20.12
2019-05-22T13:23:35.929Z,20.12
2019-05-22T13:26:10.898Z,20.11
2019-05-22T13:28:47.317Z,20.15
2019-05-22T13:31:21.420Z,20.08
2019-05-22T13:33:57.272Z,20.02
2019-05-22T13:36:31.139Z,19.95
2019-05-22T13:39:05.315Z,20.02
2019-05-22T13:41:38.711Z,20.08
2019-05-22T13:44:12.479Z,20.20
2019-05-22T13:46:46.521Z,20.21
2019-05-22T13:49:20.236Z,20.27
2019-05-22T13:51:54.455Z,20.18
2019-05-22T13:54:28.300Z,20.19
2019-05-22T13:57:03.724Z,20.29
2019-05-22T13:59:37.250Z,20.27
2019-05-22T14:02:11.053Z,20.09
2019-05-22T14:04:44.387Z,20.09
2019-05-22T14:07:30.905Z,20.01
2019-05-22T14:10:09.396Z,19.90
2019-05-22T14:12:42.880Z,19.96
2019-05-22T14:15:16.941Z,20.00
2019-05-22T14:17:50.261Z,19.97
2019-05-22T14:20:24.170Z,19.92
2019-05-22T14:22:57.597Z,19.81
2019-05-22T14:25:31.927Z,19.71
2019-05-22T14:28:07.611Z,19.58
2019-05-22T14:30:41.121Z,19.56
2019-05-22T14:33:14.767Z,19.58
2019-05-22T14:35:49.728Z,19.51
2019-05-22T14:38:23.865Z,19.48
2019-05-22T14:40:57.330Z,19.38
2019-05-22T14:43:31.271Z,19.27
2019-05-22T14:46:05.899Z,19.18
2019-05-22T14:48:41.084Z,19.11
2019-05-22T14:51:14.718Z,19.03
2019-05-22T14:53:50.342Z,18.84
2019-05-22T14:56:34.883Z,18.66
2019-05-22T14:59:16.210Z,18.65
2019-05-22T15:01:53.689Z,18.70
2019-05-22T15:04:29.070Z,18.78
2019-05-22T15:07:08.768Z,18.76
2019-05-22T15:09:42.150Z,18.67
2019-05-22T15:12:15.562Z,18.48
2019-05-22T15:14:48.907Z,18.40
2019-05-22T15:17:32.563Z,18.47
2019-05-22T15:19:57.783Z,18.37
2019-05-22T15:22:31.238Z,18.23
2019-05-22T15:25:04.957Z,18.12
2019-05-22T15:27:39.203Z,17.92
2019-05-22T15:30:13.409Z,17.66
2019-05-22T15:32:46.701Z,17.53
2019-05-22T15:35:21.213Z,17.46
2019-05-22T15:37:56.037Z,17.39
2019-05-22T15:40:29.820Z,17.25
2019-05-22T15:43:03.361Z,17.24
2019-05-22T15:45:37.639Z,17.20
2019-05-22T15:48:16.114Z,17.20
2019-05-22T15:50:53.780Z,17.03
2019-05-22T15:53:28.409Z,16.90
2019-05-22T15:56:06.898Z,16.92
2019-05-22T15:58:47.187Z,16.95
2019-05-22T16:01:25.658Z,16.90
2019-05-22T16:03:59.398Z,16.83
2019-05-22T16:06:33.534Z,16.81
2019-05-22T16:09:10.344Z,16.74
2019-05-22T16:11:44.901Z,16.67
2019-05-22T16:14:18.608Z,16.75
2019-05-22T16:16:53.475Z,16.81
2019-05-22T16:19:28.587Z,16.84
2019-05-22T16:22:05.378Z,16.81
2019-05-22T16:24:40.689Z,16.80
2019-05-22T16:27:15.374Z,16.80
2019-05-22T16:29:49.399Z,16.81
2019-05-22T16:32:23.548Z,16.79
2019-05-22T16:34:57.661Z,16.72
2019-05-22T16:37:32.482Z,16.71
2019-05-22T16:40:06.685Z,16.72
2019-05-22T16:42:40.415Z,16.63
2019-05-22T16:45:14.244Z,16.49
2019-05-22T16:47:48.064Z,16.42
2019-05-22T16:50:21.988Z,16.26
2019-05-22T16:52:56.685Z,16.24
2019-05-22T16:55:32.223Z,16.10
2019-05-22T16:58:05.764Z,16.07
2019-05-22T17:00:40.043Z,16.02
2019-05-22T17:03:14.764Z,16.02
2019-05-22T17:05:48.622Z,15.96
2019-05-22T17:08:23.077Z,16.04
2019-05-22T17:10:59.786Z,15.97
2019-05-22T17:13:35.409Z,15.99
2019-05-22T17:16:09.697Z,15.94
2019-05-22T17:18:47.799Z,16.01
2019-05-22T17:21:19.133Z,15.94
2019-05-22T17:23:53.014Z,15.89
2019-05-22T17:26:27.419Z,15.86
2019-05-22T17:29:01.280Z,15.80
2019-05-22T17:31:34.886Z,15.80
2019-05-22T17:34:27.651Z,15.73
2019-05-22T17:37:02.898Z,15.69
2019-05-22T17:39:38.872Z,15.68
2019-05-22T17:42:16.524Z,15.73
2019-05-22T17:44:51.794Z,15.74
2019-05-22T17:47:27.318Z,15.70
2019-05-22T17:50:03.413Z,15.73
2019-05-22T17:52:37.222Z,15.65
2019-05-22T17:55:13.123Z,15.61
2019-05-22T17:57:48.301Z,15.62
2019-05-22T18:00:35.603Z,15.57
2019-05-22T18:03:09.085Z,15.53
2019-05-22T18:05:42.738Z,15.49
2019-05-22T18:08:17.047Z,15.47
2019-05-22T18:10:51.524Z,15.48
2019-05-22T18:13:25.060Z,15.52
2019-05-22T18:15:58.420Z,15.55
2019-05-22T18:18:32.411Z,15.58
2019-05-22T18:21:08.596Z,15.55
2019-05-22T18:23:41.422Z,15.47
2019-05-22T18:26:15.644Z,15.50
2019-05-22T18:28:49.135Z,15.54
2019-05-22T18:31:22.455Z,15.46
2019-05-22T18:33:55.968Z,15.53
2019-05-22T18:36:29.221Z,15.54
2019-05-22T18:39:02.526Z,15.44
2019-05-22T18:41:36.070Z,15.41
2019-05-22T18:44:09.316Z,15.43
2019-05-22T18:46:42.638Z,15.39
2019-05-22T18:49:15.884Z,15.39
2019-05-22T18:51:49.161Z,15.36
2019-05-22T18:54:22.419Z,15.39
2019-05-22T18:56:55.843Z,15.37
2019-05-22T18:59:29.125Z,15.39
2019-05-22T19:02:02.531Z,15.35
2019-05-22T19:04:36.466Z,15.33
2019-05-22T19:07:10.034Z,15.33
2019-05-22T19:09:43.363Z,15.33
2019-05-22T19:12:16.890Z,15.26
2019-05-22T19:14:50.400Z,15.25
2019-05-22T19:17:24.442Z,15.26
2019-05-22T19:19:57.850Z,15.28
2019-05-22T19:22:31.366Z,15.26
2019-05-22T19:25:04.717Z,15.27
2019-05-22T19:27:39.179Z,15.25
2019-05-22T19:30:13.289Z,15.21
2019-05-22T19:32:46.792Z,15.24
2019-05-22T19:35:21.067Z,15.26
2019-05-22T19:37:55.002Z,15.22
2019-05-22T19:40:28.408Z,15.12
2019-05-22T19:43:02.436Z,15.17
2019-05-22T19:45:36.054Z,15.11
2019-05-22T19:48:10.245Z,15.05
2019-05-22T19:50:44.000Z,15.04
2019-05-22T19:53:19.447Z,15.12
2019-05-22T19:55:53.852Z,15.08
2019-05-22T19:58:27.281Z,15.06
2019-05-22T20:01:00.648Z,15.04
2019-05-22T20:03:34.679Z,14.97
2019-05-22T20:06:08.020Z,14.99
2019-05-22T20:08:41.902Z,14.88
2019-05-22T20:11:15.316Z,14.86
2019-05-22T20:13:49.579Z,14.83
2019-05-22T20:16:23.059Z,14.87
2019-05-22T20:18:58.373Z,14.76
2019-05-22T20:21:31.770Z,14.72
2019-05-22T20:24:06.362Z,14.79
2019-05-22T20:26:39.698Z,14.76
2019-05-22T20:29:14.695Z,14.75
2019-05-22T20:31:49.068Z,14.73
2019-05-22T20:34:22.855Z,14.77
2019-05-22T20:36:56.337Z,14.77
2019-05-22T20:39:31.286Z,14.72
2019-05-22T20:42:05.080Z,14.71
2019-05-22T20:44:39.378Z,14.70
2019-05-22T20:47:14.222Z,14.66
2019-05-22T20:49:49.943Z,14.59
2019-05-22T20:52:23.284Z,14.65
2019-05-22T20:54:58.690Z,14.55
2019-05-22T20:57:33.822Z,14.61
2019-05-22T21:00:08.390Z,14.49
2019-05-22T21:02:45.127Z,14.36
2019-05-22T21:05:20.088Z,14.39
2019-05-22T21:07:57.179Z,14.41
2019-05-22T21:10:32.367Z,14.41
2019-05-22T21:13:06.054Z,14.39
2019-05-22T21:15:40.011Z,14.31
2019-05-22T21:18:14.430Z,14.34
2019-05-22T21:20:54.880Z,14.32
2019-05-22T21:23:24.689Z,14.33
2019-05-22T21:25:58.051Z,14.31
2019-05-22T21:28:31.764Z,14.37
2019-05-22T21:31:06.301Z,14.40
2019-05-22T21:33:40.980Z,14.41
2019-05-22T21:36:16.601Z,14.36
2019-05-22T21:38:50.019Z,14.39
2019-05-22T21:41:24.541Z,14.37
2019-05-22T21:43:58.436Z,14.25
2019-05-22T21:46:33.190Z,14.25
2019-05-22T21:49:06.887Z,14.27
2019-05-22T21:51:40.146Z,14.25
2019-05-22T21:54:14.460Z,14.26
2019-05-22T21:56:48.037Z,14.14
2019-05-22T21:59:21.945Z,14.14
2019-05-22T22:02:13.104Z,14.22
2019-05-22T22:04:47.991Z,14.21
2019-05-22T22:07:21.462Z,14.22
2019-05-22T22:09:55.309Z,14.25
2019-05-22T22:12:29.546Z,14.19
2019-05-22T22:15:02.852Z,14.07
2019-05-22T22:17:39.401Z,14.11
2019-05-22T22:20:14.324Z,14.07
2019-05-22T22:22:49.312Z,14.09
2019-05-22T22:25:24.893Z,13.98
2019-05-22T22:27:58.625Z,13.94
2019-05-22T22:30:37.673Z,13.90
2019-05-22T22:33:13.816Z,13.87
2019-05-22T22:35:47.869Z,13.77
2019-05-22T22:38:25.042Z,13.79
2019-05-22T22:41:00.167Z,13.77
2019-05-22T22:43:37.206Z,13.79
2019-05-22T22:46:23.413Z,13.83
2019-05-22T22:48:58.081Z,13.74
2019-05-22T22:51:32.271Z,13.80
2019-05-22T22:54:06.946Z,13.80
2019-05-22T22:56:41.039Z,13.77
2019-05-22T22:59:14.807Z,13.82
2019-05-22T23:01:53.459Z,13.82
2019-05-22T23:04:30.115Z,13.71
2019-05-22T23:07:08.114Z,13.78
2019-05-22T23:09:45.117Z,13.77
2019-05-22T23:12:21.642Z,13.70
2019-05-22T23:15:00.628Z,13.72
2019-05-22T23:17:36.407Z,13.67
2019-05-22T23:20:08.485Z,13.71
2019-05-22T23:22:40.447Z,13.73
2019-05-22T23:25:13.937Z,13.70
2019-05-22T23:27:48.690Z,13.59
2019-05-22T23:30:23.606Z,13.65
2019-05-22T23:32:57.601Z,13.58
2019-05-22T23:35:32.114Z,13.62
2019-05-22T23:38:06.689Z,13.63
2019-05-22T23:40:40.133Z,13.62
2019-05-22T23:43:15.638Z,13.58
2019-05-22T23:45:51.434Z,13.62
2019-05-22T23:48:25.564Z,13.58
2019-05-22T23:50:59.504Z,13.59
2019-05-22T23:53:36.126Z,13.61
2019-05-22T23:56:11.189Z,13.67
2019-05-22T23:58:52.606Z,13.60
